sensor_id;sensor_type;location;lat;lon;timestamp;P1;P2;P0
63305;PMS5003;50735;52.060;1.248;2023-08-12T00:02:24;24;19;
63305;PMS5003;50735;52.060;1.248;2023-08-12T00:04:56;18;15;
63305;PMS5003;50735;52.060;1.248;2023-08-12T00:07:29;19;14;
63305;PMS5003;50735;52.060;1.248;2023-08-12T00:10:01;21;21;
63305;PMS5003;50735;52.060;1.248;2023-08-12T00:12:35;20;18;
63305;PMS5003;50735;52.060;1.248;2023-08-12T00:15:08;17;12;
63305;PMS5003;50735;52.060;1.248;2023-08-12T00:17:40;19;17;
63305;PMS5003;50735;52.060;1.248;2023-08-12T00:20:13;16;14;
63305;PMS5003;50735;52.060;1.248;2023-08-12T00:22:45;17;13;
63305;PMS5003;50735;52.060;1.248;2023-08-12T00:25:16;15;11;
63305;PMS5003;50735;52.060;1.248;2023-08-12T00:27:48;19;13;
63305;PMS5003;50735;52.060;1.248;2023-08-12T00:30:20;12;10;
63305;PMS5003;50735;52.060;1.248;2023-08-12T00:32:52;11;9;
63305;PMS5003;50735;52.060;1.248;2023-08-12T00:35:24;11;10;
63305;PMS5003;50735;52.060;1.248;2023-08-12T00:37:55;12;12;
63305;PMS5003;50735;52.060;1.248;2023-08-12T00:40:27;11;11;
63305;PMS5003;50735;52.060;1.248;2023-08-12T00:42:59;13;10;
63305;PMS5003;50735;52.060;1.248;2023-08-12T00:45:31;13;12;
63305;PMS5003;50735;52.060;1.248;2023-08-12T00:48:04;12;7;
63305;PMS5003;50735;52.060;1.248;2023-08-12T00:50:37;11;9;
63305;PMS5003;50735;52.060;1.248;2023-08-12T00:53:11;13;12;
63305;PMS5003;50735;52.060;1.248;2023-08-12T00:55:46;12;11;
63305;PMS5003;50735;52.060;1.248;2023-08-12T00:58:17;10;7;
63305;PMS5003;50735;52.060;1.248;2023-08-12T01:00:50;14;10;
63305;PMS5003;50735;52.060;1.248;2023-08-12T01:03:22;14;11;
63305;PMS5003;50735;52.060;1.248;2023-08-12T01:05:54;9;6;
63305;PMS5003;50735;52.060;1.248;2023-08-12T01:08:28;10;7;
63305;PMS5003;50735;52.060;1.248;2023-08-12T01:11:03;8;4;
63305;PMS5003;50735;52.060;1.248;2023-08-12T01:13:45;4;4;
63305;PMS5003;50735;52.060;1.248;2023-08-12T01:16:24;7;7;
63305;PMS5003;50735;52.060;1.248;2023-08-12T01:19:00;12;7;
63305;PMS5003;50735;52.060;1.248;2023-08-12T01:21:32;9;7;
63305;PMS5003;50735;52.060;1.248;2023-08-12T01:24:08;7;6;
63305;PMS5003;50735;52.060;1.248;2023-08-12T01:26:39;6;6;
63305;PMS5003;50735;52.060;1.248;2023-08-12T01:29:11;10;7;
63305;PMS5003;50735;52.060;1.248;2023-08-12T01:31:45;7;7;
63305;PMS5003;50735;52.060;1.248;2023-08-12T01:34:24;6;6;
63305;PMS5003;50735;52.060;1.248;2023-08-12T01:37:03;8;6;
63305;PMS5003;50735;52.060;1.248;2023-08-12T01:39:38;8;5;
63305;PMS5003;50735;52.060;1.248;2023-08-12T01:42:12;5;5;
63305;PMS5003;50735;52.060;1.248;2023-08-12T01:44:45;6;5;
63305;PMS5003;50735;52.060;1.248;2023-08-12T01:47:18;4;4;
63305;PMS5003;50735;52.060;1.248;2023-08-12T01:49:49;6;5;
63305;PMS5003;50735;52.060;1.248;2023-08-12T01:52:21;5;3;
63305;PMS5003;50735;52.060;1.248;2023-08-12T01:54:53;6;5;
63305;PMS5003;50735;52.060;1.248;2023-08-12T01:57:25;9;4;
63305;PMS5003;50735;52.060;1.248;2023-08-12T01:59:56;10;5;
63305;PMS5003;50735;52.060;1.248;2023-08-12T02:02:28;6;6;
63305;PMS5003;50735;52.060;1.248;2023-08-12T02:05:00;5;5;
63305;PMS5003;50735;52.060;1.248;2023-08-12T02:07:32;3;3;
63305;PMS5003;50735;52.060;1.248;2023-08-12T02:10:04;8;4;
63305;PMS5003;50735;52.060;1.248;2023-08-12T02:12:37;4;4;
63305;PMS5003;50735;52.060;1.248;2023-08-12T02:15:09;6;5;
63305;PMS5003;50735;52.060;1.248;2023-08-12T02:17:41;9;4;
63305;PMS5003;50735;52.060;1.248;2023-08-12T02:20:13;5;4;
63305;PMS5003;50735;52.060;1.248;2023-08-12T02:22:44;5;5;
63305;PMS5003;50735;52.060;1.248;2023-08-12T02:25:16;7;4;
63305;PMS5003;50735;52.060;1.248;2023-08-12T02:27:48;7;4;
63305;PMS5003;50735;52.060;1.248;2023-08-12T02:30:20;3;3;
63305;PMS5003;50735;52.060;1.248;2023-08-12T02:32:51;6;5;
63305;PMS5003;50735;52.060;1.248;2023-08-12T02:35:23;9;7;
63305;PMS5003;50735;52.060;1.248;2023-08-12T02:37:55;8;5;
63305;PMS5003;50735;52.060;1.248;2023-08-12T02:40:27;5;5;
63305;PMS5003;50735;52.060;1.248;2023-08-12T02:42:59;5;4;
63305;PMS5003;50735;52.060;1.248;2023-08-12T02:45:31;4;4;
63305;PMS5003;50735;52.060;1.248;2023-08-12T02:48:04;5;4;
63305;PMS5003;50735;52.060;1.248;2023-08-12T02:50:36;6;5;
63305;PMS5003;50735;52.060;1.248;2023-08-12T02:53:08;8;5;
63305;PMS5003;50735;52.060;1.248;2023-08-12T02:55:39;6;5;
63305;PMS5003;50735;52.060;1.248;2023-08-12T02:58:11;4;4;
63305;PMS5003;50735;52.060;1.248;2023-08-12T03:00:43;4;4;
63305;PMS5003;50735;52.060;1.248;2023-08-12T03:03:15;4;3;
63305;PMS5003;50735;52.060;1.248;2023-08-12T03:05:46;5;5;
63305;PMS5003;50735;52.060;1.248;2023-08-12T03:08:18;5;5;
63305;PMS5003;50735;52.060;1.248;2023-08-12T03:10:50;6;6;
63305;PMS5003;50735;52.060;1.248;2023-08-12T03:13:22;3;3;
63305;PMS5003;50735;52.060;1.248;2023-08-12T03:15:53;6;4;
63305;PMS5003;50735;52.060;1.248;2023-08-12T03:18:25;6;5;
63305;PMS5003;50735;52.060;1.248;2023-08-12T03:20:57;8;5;
63305;PMS5003;50735;52.060;1.248;2023-08-12T03:23:29;6;6;
63305;PMS5003;50735;52.060;1.248;2023-08-12T03:26:00;7;4;
63305;PMS5003;50735;52.060;1.248;2023-08-12T03:28:32;5;5;
63305;PMS5003;50735;52.060;1.248;2023-08-12T03:31:04;6;4;
63305;PMS5003;50735;52.060;1.248;2023-08-12T03:33:36;4;4;
63305;PMS5003;50735;52.060;1.248;2023-08-12T03:36:08;7;7;
63305;PMS5003;50735;52.060;1.248;2023-08-12T03:38:40;3;3;
63305;PMS5003;50735;52.060;1.248;2023-08-12T03:41:12;5;3;
63305;PMS5003;50735;52.060;1.248;2023-08-12T03:43:44;7;7;
63305;PMS5003;50735;52.060;1.248;2023-08-12T03:46:16;5;5;
63305;PMS5003;50735;52.060;1.248;2023-08-12T03:48:48;5;5;
63305;PMS5003;50735;52.060;1.248;2023-08-12T03:51:20;10;5;
63305;PMS5003;50735;52.060;1.248;2023-08-12T03:53:52;5;5;
63305;PMS5003;50735;52.060;1.248;2023-08-12T03:56:24;6;5;
63305;PMS5003;50735;52.060;1.248;2023-08-12T03:58:55;5;5;
63305;PMS5003;50735;52.060;1.248;2023-08-12T04:01:27;5;5;
63305;PMS5003;50735;52.060;1.248;2023-08-12T04:03:59;6;4;
63305;PMS5003;50735;52.060;1.248;2023-08-12T04:06:31;5;4;
63305;PMS5003;50735;52.060;1.248;2023-08-12T04:09:03;7;5;
63305;PMS5003;50735;52.060;1.248;2023-08-12T04:11:34;5;5;
63305;PMS5003;50735;52.060;1.248;2023-08-12T04:14:06;8;6;
63305;PMS5003;50735;52.060;1.248;2023-08-12T04:16:38;7;5;
63305;PMS5003;50735;52.060;1.248;2023-08-12T04:19:10;6;5;
63305;PMS5003;50735;52.060;1.248;2023-08-12T04:21:42;10;5;
63305;PMS5003;50735;52.060;1.248;2023-08-12T04:24:14;6;5;
63305;PMS5003;50735;52.060;1.248;2023-08-12T04:26:45;3;3;
63305;PMS5003;50735;52.060;1.248;2023-08-12T04:29:17;9;5;
63305;PMS5003;50735;52.060;1.248;2023-08-12T04:31:49;5;5;
63305;PMS5003;50735;52.060;1.248;2023-08-12T04:34:21;6;6;
63305;PMS5003;50735;52.060;1.248;2023-08-12T04:36:53;6;5;
63305;PMS5003;50735;52.060;1.248;2023-08-12T04:39:24;9;6;
63305;PMS5003;50735;52.060;1.248;2023-08-12T04:41:56;6;5;
63305;PMS5003;50735;52.060;1.248;2023-08-12T04:44:27;8;5;
63305;PMS5003;50735;52.060;1.248;2023-08-12T04:46:59;3;3;
63305;PMS5003;50735;52.060;1.248;2023-08-12T04:49:31;8;5;
63305;PMS5003;50735;52.060;1.248;2023-08-12T04:52:03;8;6;
63305;PMS5003;50735;52.060;1.248;2023-08-12T04:54:35;8;6;
63305;PMS5003;50735;52.060;1.248;2023-08-12T04:57:08;7;7;
63305;PMS5003;50735;52.060;1.248;2023-08-12T04:59:40;4;4;
63305;PMS5003;50735;52.060;1.248;2023-08-12T05:02:11;7;7;
63305;PMS5003;50735;52.060;1.248;2023-08-12T05:04:43;5;5;
63305;PMS5003;50735;52.060;1.248;2023-08-12T05:07:18;4;4;
63305;PMS5003;50735;52.060;1.248;2023-08-12T05:09:50;9;5;
63305;PMS5003;50735;52.060;1.248;2023-08-12T05:12:22;6;5;
63305;PMS5003;50735;52.060;1.248;2023-08-12T05:14:54;6;3;
63305;PMS5003;50735;52.060;1.248;2023-08-12T05:17:25;9;6;
63305;PMS5003;50735;52.060;1.248;2023-08-12T05:19:57;9;5;
63305;PMS5003;50735;52.060;1.248;2023-08-12T05:22:29;5;5;
63305;PMS5003;50735;52.060;1.248;2023-08-12T05:25:01;10;6;
63305;PMS5003;50735;52.060;1.248;2023-08-12T05:27:33;9;7;
63305;PMS5003;50735;52.060;1.248;2023-08-12T05:30:06;10;6;
63305;PMS5003;50735;52.060;1.248;2023-08-12T05:32:38;5;5;
63305;PMS5003;50735;52.060;1.248;2023-08-12T05:35:10;4;4;
63305;PMS5003;50735;52.060;1.248;2023-08-12T05:37:42;6;5;
63305;PMS5003;50735;52.060;1.248;2023-08-12T05:40:13;6;5;
63305;PMS5003;50735;52.060;1.248;2023-08-12T05:42:45;9;7;
63305;PMS5003;50735;52.060;1.248;2023-08-12T05:45:17;6;5;
63305;PMS5003;50735;52.060;1.248;2023-08-12T05:47:49;8;5;
63305;PMS5003;50735;52.060;1.248;2023-08-12T05:50:20;8;6;
63305;PMS5003;50735;52.060;1.248;2023-08-12T05:52:52;7;7;
63305;PMS5003;50735;52.060;1.248;2023-08-12T05:55:24;6;6;
63305;PMS5003;50735;52.060;1.248;2023-08-12T05:57:56;5;5;
63305;PMS5003;50735;52.060;1.248;2023-08-12T06:00:27;10;7;
63305;PMS5003;50735;52.060;1.248;2023-08-12T06:02:59;12;7;
63305;PMS5003;50735;52.060;1.248;2023-08-12T06:05:31;8;7;
63305;PMS5003;50735;52.060;1.248;2023-08-12T06:08:03;6;6;
63305;PMS5003;50735;52.060;1.248;2023-08-12T06:10:35;9;7;
63305;PMS5003;50735;52.060;1.248;2023-08-12T06:13:07;8;7;
63305;PMS5003;50735;52.060;1.248;2023-08-12T06:15:39;9;8;
63305;PMS5003;50735;52.060;1.248;2023-08-12T06:18:10;7;7;
63305;PMS5003;50735;52.060;1.248;2023-08-12T06:20:42;8;7;
63305;PMS5003;50735;52.060;1.248;2023-08-12T06:23:15;8;7;
63305;PMS5003;50735;52.060;1.248;2023-08-12T06:25:47;8;8;
63305;PMS5003;50735;52.060;1.248;2023-08-12T06:28:19;14;9;
63305;PMS5003;50735;52.060;1.248;2023-08-12T06:30:50;7;7;
63305;PMS5003;50735;52.060;1.248;2023-08-12T06:33:23;12;8;
63305;PMS5003;50735;52.060;1.248;2023-08-12T06:35:55;9;9;
63305;PMS5003;50735;52.060;1.248;2023-08-12T06:38:26;12;10;
63305;PMS5003;50735;52.060;1.248;2023-08-12T06:40:58;13;8;
63305;PMS5003;50735;52.060;1.248;2023-08-12T06:43:30;9;7;
63305;PMS5003;50735;52.060;1.248;2023-08-12T06:46:01;11;11;
63305;PMS5003;50735;52.060;1.248;2023-08-12T06:48:33;10;8;
63305;PMS5003;50735;52.060;1.248;2023-08-12T06:51:05;9;9;
63305;PMS5003;50735;52.060;1.248;2023-08-12T06:53:37;7;7;
63305;PMS5003;50735;52.060;1.248;2023-08-12T06:56:09;14;13;
63305;PMS5003;50735;52.060;1.248;2023-08-12T06:58:41;7;7;
63305;PMS5003;50735;52.060;1.248;2023-08-12T07:01:13;9;9;
63305;PMS5003;50735;52.060;1.248;2023-08-12T07:03:45;8;8;
63305;PMS5003;50735;52.060;1.248;2023-08-12T07:06:17;9;7;
63305;PMS5003;50735;52.060;1.248;2023-08-12T07:08:49;7;7;
63305;PMS5003;50735;52.060;1.248;2023-08-12T07:11:21;12;11;
63305;PMS5003;50735;52.060;1.248;2023-08-12T07:13:53;10;9;
63305;PMS5003;50735;52.060;1.248;2023-08-12T07:16:24;9;6;
63305;PMS5003;50735;52.060;1.248;2023-08-12T07:18:56;11;8;
63305;PMS5003;50735;52.060;1.248;2023-08-12T07:21:28;9;9;
63305;PMS5003;50735;52.060;1.248;2023-08-12T07:23:59;12;8;
63305;PMS5003;50735;52.060;1.248;2023-08-12T07:26:31;12;9;
63305;PMS5003;50735;52.060;1.248;2023-08-12T07:29:02;9;8;
63305;PMS5003;50735;52.060;1.248;2023-08-12T07:31:34;8;7;
63305;PMS5003;50735;52.060;1.248;2023-08-12T07:34:06;9;6;
63305;PMS5003;50735;52.060;1.248;2023-08-12T07:36:38;13;7;
63305;PMS5003;50735;52.060;1.248;2023-08-12T07:39:10;12;9;
63305;PMS5003;50735;52.060;1.248;2023-08-12T07:41:42;17;11;
63305;PMS5003;50735;52.060;1.248;2023-08-12T07:44:14;9;8;
63305;PMS5003;50735;52.060;1.248;2023-08-12T07:46:45;6;6;
63305;PMS5003;50735;52.060;1.248;2023-08-12T07:49:18;8;8;
63305;PMS5003;50735;52.060;1.248;2023-08-12T07:51:49;8;6;
63305;PMS5003;50735;52.060;1.248;2023-08-12T07:54:22;6;6;
63305;PMS5003;50735;52.060;1.248;2023-08-12T07:56:54;8;8;
63305;PMS5003;50735;52.060;1.248;2023-08-12T07:59:26;11;8;
63305;PMS5003;50735;52.060;1.248;2023-08-12T08:01:58;11;9;
63305;PMS5003;50735;52.060;1.248;2023-08-12T08:04:29;11;7;
63305;PMS5003;50735;52.060;1.248;2023-08-12T08:07:01;15;10;
63305;PMS5003;50735;52.060;1.248;2023-08-12T08:09:33;12;8;
63305;PMS5003;50735;52.060;1.248;2023-08-12T08:12:04;12;8;
63305;PMS5003;50735;52.060;1.248;2023-08-12T08:14:37;21;12;
63305;PMS5003;50735;52.060;1.248;2023-08-12T08:17:10;10;8;
63305;PMS5003;50735;52.060;1.248;2023-08-12T08:19:41;13;12;
63305;PMS5003;50735;52.060;1.248;2023-08-12T08:22:14;12;7;
63305;PMS5003;50735;52.060;1.248;2023-08-12T08:24:46;13;10;
63305;PMS5003;50735;52.060;1.248;2023-08-12T08:27:18;12;9;
63305;PMS5003;50735;52.060;1.248;2023-08-12T08:29:51;12;10;
63305;PMS5003;50735;52.060;1.248;2023-08-12T08:32:22;12;12;
63305;PMS5003;50735;52.060;1.248;2023-08-12T08:34:54;12;8;
63305;PMS5003;50735;52.060;1.248;2023-08-12T08:37:26;11;10;
63305;PMS5003;50735;52.060;1.248;2023-08-12T08:39:59;10;9;
63305;PMS5003;50735;52.060;1.248;2023-08-12T08:42:31;10;8;
63305;PMS5003;50735;52.060;1.248;2023-08-12T08:45:04;13;12;
63305;PMS5003;50735;52.060;1.248;2023-08-12T08:47:43;15;12;
63305;PMS5003;50735;52.060;1.248;2023-08-12T08:50:17;12;9;
63305;PMS5003;50735;52.060;1.248;2023-08-12T08:52:49;11;9;
63305;PMS5003;50735;52.060;1.248;2023-08-12T08:55:24;18;9;
63305;PMS5003;50735;52.060;1.248;2023-08-12T08:57:56;10;9;
63305;PMS5003;50735;52.060;1.248;2023-08-12T09:00:28;10;8;
63305;PMS5003;50735;52.060;1.248;2023-08-12T09:03:00;8;8;
63305;PMS5003;50735;52.060;1.248;2023-08-12T09:05:34;8;8;
63305;PMS5003;50735;52.060;1.248;2023-08-12T09:08:07;9;7;
63305;PMS5003;50735;52.060;1.248;2023-08-12T09:10:39;13;8;
63305;PMS5003;50735;52.060;1.248;2023-08-12T09:13:13;7;6;
63305;PMS5003;50735;52.060;1.248;2023-08-12T09:15:45;10;7;
63305;PMS5003;50735;52.060;1.248;2023-08-12T09:18:17;8;7;
63305;PMS5003;50735;52.060;1.248;2023-08-12T09:20:49;6;5;
63305;PMS5003;50735;52.060;1.248;2023-08-12T09:23:20;7;7;
63305;PMS5003;50735;52.060;1.248;2023-08-12T09:25:52;8;7;
63305;PMS5003;50735;52.060;1.248;2023-08-12T09:28:24;12;7;
63305;PMS5003;50735;52.060;1.248;2023-08-12T09:30:56;5;5;
63305;PMS5003;50735;52.060;1.248;2023-08-12T09:33:28;10;5;
63305;PMS5003;50735;52.060;1.248;2023-08-12T09:36:00;4;4;
63305;PMS5003;50735;52.060;1.248;2023-08-12T09:38:32;7;5;
63305;PMS5003;50735;52.060;1.248;2023-08-12T09:41:04;6;5;
63305;PMS5003;50735;52.060;1.248;2023-08-12T09:43:39;8;4;
63305;PMS5003;50735;52.060;1.248;2023-08-12T09:46:12;6;4;
63305;PMS5003;50735;52.060;1.248;2023-08-12T09:48:44;6;5;
63305;PMS5003;50735;52.060;1.248;2023-08-12T09:51:17;7;6;
63305;PMS5003;50735;52.060;1.248;2023-08-12T09:53:48;8;3;
63305;PMS5003;50735;52.060;1.248;2023-08-12T09:56:22;9;5;
63305;PMS5003;50735;52.060;1.248;2023-08-12T09:58:55;5;4;
63305;PMS5003;50735;52.060;1.248;2023-08-12T10:01:28;5;5;
63305;PMS5003;50735;52.060;1.248;2023-08-12T10:03:59;5;3;
63305;PMS5003;50735;52.060;1.248;2023-08-12T10:06:32;5;3;
63305;PMS5003;50735;52.060;1.248;2023-08-12T10:09:04;9;5;
63305;PMS5003;50735;52.060;1.248;2023-08-12T10:11:37;5;2;
63305;PMS5003;50735;52.060;1.248;2023-08-12T10:14:10;5;4;
63305;PMS5003;50735;52.060;1.248;2023-08-12T10:16:45;5;4;
63305;PMS5003;50735;52.060;1.248;2023-08-12T10:19:17;5;3;
63305;PMS5003;50735;52.060;1.248;2023-08-12T10:21:54;5;3;
63305;PMS5003;50735;52.060;1.248;2023-08-12T10:24:27;4;4;
63305;PMS5003;50735;52.060;1.248;2023-08-12T10:26:59;4;4;
63305;PMS5003;50735;52.060;1.248;2023-08-12T10:29:32;7;5;
63305;PMS5003;50735;52.060;1.248;2023-08-12T10:32:06;5;5;
63305;PMS5003;50735;52.060;1.248;2023-08-12T10:34:39;8;4;
63305;PMS5003;50735;52.060;1.248;2023-08-12T10:37:11;4;4;
63305;PMS5003;50735;52.060;1.248;2023-08-12T10:39:42;3;3;
63305;PMS5003;50735;52.060;1.248;2023-08-12T10:42:38;5;5;
63305;PMS5003;50735;52.060;1.248;2023-08-12T10:45:12;11;7;
63305;PMS5003;50735;52.060;1.248;2023-08-12T10:47:48;10;5;
63305;PMS5003;50735;52.060;1.248;2023-08-12T10:50:24;6;5;
63305;PMS5003;50735;52.060;1.248;2023-08-12T10:52:56;4;4;
63305;PMS5003;50735;52.060;1.248;2023-08-12T10:55:29;5;5;
63305;PMS5003;50735;52.060;1.248;2023-08-12T10:58:00;4;4;
63305;PMS5003;50735;52.060;1.248;2023-08-12T11:00:32;5;3;
63305;PMS5003;50735;52.060;1.248;2023-08-12T11:03:04;5;5;
63305;PMS5003;50735;52.060;1.248;2023-08-12T11:05:37;2;2;
63305;PMS5003;50735;52.060;1.248;2023-08-12T11:08:11;6;4;
63305;PMS5003;50735;52.060;1.248;2023-08-12T11:10:45;3;2;
63305;PMS5003;50735;52.060;1.248;2023-08-12T11:13:17;13;6;
63305;PMS5003;50735;52.060;1.248;2023-08-12T11:15:48;9;4;
63305;PMS5003;50735;52.060;1.248;2023-08-12T11:18:20;9;5;
63305;PMS5003;50735;52.060;1.248;2023-08-12T11:20:52;5;3;
63305;PMS5003;50735;52.060;1.248;2023-08-12T11:23:24;8;5;
63305;PMS5003;50735;52.060;1.248;2023-08-12T11:31:10;7;4;
63305;PMS5003;50735;52.060;1.248;2023-08-12T11:33:42;4;4;
63305;PMS5003;50735;52.060;1.248;2023-08-12T11:36:14;4;2;
63305;PMS5003;50735;52.060;1.248;2023-08-12T11:38:46;6;4;
63305;PMS5003;50735;52.060;1.248;2023-08-12T11:41:18;10;6;
63305;PMS5003;50735;52.060;1.248;2023-08-12T11:43:53;1;1;
63305;PMS5003;50735;52.060;1.248;2023-08-12T11:46:25;9;4;
63305;PMS5003;50735;52.060;1.248;2023-08-12T11:48:57;7;3;
63305;PMS5003;50735;52.060;1.248;2023-08-12T11:51:28;3;1;
63305;PMS5003;50735;52.060;1.248;2023-08-12T11:54:00;5;4;
63305;PMS5003;50735;52.060;1.248;2023-08-12T11:56:32;3;3;
63305;PMS5003;50735;52.060;1.248;2023-08-12T11:59:04;6;5;
63305;PMS5003;50735;52.060;1.248;2023-08-12T12:01:37;7;4;
63305;PMS5003;50735;52.060;1.248;2023-08-12T12:04:09;5;3;
63305;PMS5003;50735;52.060;1.248;2023-08-12T12:06:42;5;5;
63305;PMS5003;50735;52.060;1.248;2023-08-12T12:09:14;6;5;
63305;PMS5003;50735;52.060;1.248;2023-08-12T12:11:47;7;5;
63305;PMS5003;50735;52.060;1.248;2023-08-12T12:14:24;3;3;
63305;PMS5003;50735;52.060;1.248;2023-08-12T12:16:57;8;5;
63305;PMS5003;50735;52.060;1.248;2023-08-12T12:19:28;7;4;
63305;PMS5003;50735;52.060;1.248;2023-08-12T12:22:01;4;2;
63305;PMS5003;50735;52.060;1.248;2023-08-12T12:24:43;9;6;
63305;PMS5003;50735;52.060;1.248;2023-08-12T12:27:16;7;4;
63305;PMS5003;50735;52.060;1.248;2023-08-12T12:29:47;6;5;
63305;PMS5003;50735;52.060;1.248;2023-08-12T12:32:19;5;3;
63305;PMS5003;50735;52.060;1.248;2023-08-12T12:34:52;7;5;
63305;PMS5003;50735;52.060;1.248;2023-08-12T12:37:24;4;4;
63305;PMS5003;50735;52.060;1.248;2023-08-12T12:39:56;6;6;
63305;PMS5003;50735;52.060;1.248;2023-08-12T12:42:28;7;5;
63305;PMS5003;50735;52.060;1.248;2023-08-12T12:45:00;7;3;
63305;PMS5003;50735;52.060;1.248;2023-08-12T12:47:31;5;2;
63305;PMS5003;50735;52.060;1.248;2023-08-12T12:50:03;7;5;
63305;PMS5003;50735;52.060;1.248;2023-08-12T12:52:35;6;6;
63305;PMS5003;50735;52.060;1.248;2023-08-12T12:55:07;6;4;
63305;PMS5003;50735;52.060;1.248;2023-08-12T12:57:40;8;7;
63305;PMS5003;50735;52.060;1.248;2023-08-12T13:00:12;5;5;
63305;PMS5003;50735;52.060;1.248;2023-08-12T13:02:44;4;3;
63305;PMS5003;50735;52.060;1.248;2023-08-12T13:05:16;10;4;
63305;PMS5003;50735;52.060;1.248;2023-08-12T13:07:47;5;5;
63305;PMS5003;50735;52.060;1.248;2023-08-12T13:10:20;7;6;
63305;PMS5003;50735;52.060;1.248;2023-08-12T13:12:51;4;2;
63305;PMS5003;50735;52.060;1.248;2023-08-12T13:15:23;7;4;
63305;PMS5003;50735;52.060;1.248;2023-08-12T13:17:55;6;4;
63305;PMS5003;50735;52.060;1.248;2023-08-12T13:20:26;4;1;
63305;PMS5003;50735;52.060;1.248;2023-08-12T13:22:58;7;5;
63305;PMS5003;50735;52.060;1.248;2023-08-12T13:25:31;5;4;
63305;PMS5003;50735;52.060;1.248;2023-08-12T13:28:04;5;4;
63305;PMS5003;50735;52.060;1.248;2023-08-12T13:30:36;3;3;
63305;PMS5003;50735;52.060;1.248;2023-08-12T13:33:08;6;6;
63305;PMS5003;50735;52.060;1.248;2023-08-12T13:35:40;11;8;
63305;PMS5003;50735;52.060;1.248;2023-08-12T13:38:12;9;6;
63305;PMS5003;50735;52.060;1.248;2023-08-12T13:40:44;4;4;
63305;PMS5003;50735;52.060;1.248;2023-08-12T13:43:16;5;3;
63305;PMS5003;50735;52.060;1.248;2023-08-12T13:45:48;5;4;
63305;PMS5003;50735;52.060;1.248;2023-08-12T13:48:19;5;3;
63305;PMS5003;50735;52.060;1.248;2023-08-12T13:50:51;4;2;
63305;PMS5003;50735;52.060;1.248;2023-08-12T13:53:23;3;3;
63305;PMS5003;50735;52.060;1.248;2023-08-12T13:55:55;2;2;
63305;PMS5003;50735;52.060;1.248;2023-08-12T13:58:27;4;4;
63305;PMS5003;50735;52.060;1.248;2023-08-12T14:00:59;6;6;
63305;PMS5003;50735;52.060;1.248;2023-08-12T14:03:31;5;4;
63305;PMS5003;50735;52.060;1.248;2023-08-12T14:06:03;3;3;
63305;PMS5003;50735;52.060;1.248;2023-08-12T14:08:34;4;3;
63305;PMS5003;50735;52.060;1.248;2023-08-12T14:11:06;3;2;
63305;PMS5003;50735;52.060;1.248;2023-08-12T14:13:38;5;4;
63305;PMS5003;50735;52.060;1.248;2023-08-12T14:16:10;3;3;
63305;PMS5003;50735;52.060;1.248;2023-08-12T14:18:42;3;3;
63305;PMS5003;50735;52.060;1.248;2023-08-12T14:21:14;6;4;
63305;PMS5003;50735;52.060;1.248;2023-08-12T14:23:46;7;4;
63305;PMS5003;50735;52.060;1.248;2023-08-12T14:26:19;8;6;
63305;PMS5003;50735;52.060;1.248;2023-08-12T14:28:50;3;3;
63305;PMS5003;50735;52.060;1.248;2023-08-12T14:31:22;2;2;
63305;PMS5003;50735;52.060;1.248;2023-08-12T14:33:54;4;3;
63305;PMS5003;50735;52.060;1.248;2023-08-12T14:36:25;3;1;
63305;PMS5003;50735;52.060;1.248;2023-08-12T14:38:57;2;2;
63305;PMS5003;50735;52.060;1.248;2023-08-12T14:41:29;7;3;
63305;PMS5003;50735;52.060;1.248;2023-08-12T14:44:01;4;4;
63305;PMS5003;50735;52.060;1.248;2023-08-12T14:46:32;4;3;
63305;PMS5003;50735;52.060;1.248;2023-08-12T14:49:04;8;7;
63305;PMS5003;50735;52.060;1.248;2023-08-12T14:51:36;9;7;
63305;PMS5003;50735;52.060;1.248;2023-08-12T14:54:07;6;4;
63305;PMS5003;50735;52.060;1.248;2023-08-12T14:56:40;5;3;
63305;PMS5003;50735;52.060;1.248;2023-08-12T14:59:11;5;3;
63305;PMS5003;50735;52.060;1.248;2023-08-12T15:01:43;0;0;
63305;PMS5003;50735;52.060;1.248;2023-08-12T15:04:16;4;4;
63305;PMS5003;50735;52.060;1.248;2023-08-12T15:06:47;9;6;
63305;PMS5003;50735;52.060;1.248;2023-08-12T15:09:20;7;4;
63305;PMS5003;50735;52.060;1.248;2023-08-12T15:11:51;3;3;
63305;PMS5003;50735;52.060;1.248;2023-08-12T15:14:23;9;8;
63305;PMS5003;50735;52.060;1.248;2023-08-12T15:16:55;11;9;
63305;PMS5003;50735;52.060;1.248;2023-08-12T15:19:27;12;12;
63305;PMS5003;50735;52.060;1.248;2023-08-12T15:21:59;14;13;
63305;PMS5003;50735;52.060;1.248;2023-08-12T15:24:31;17;15;
63305;PMS5003;50735;52.060;1.248;2023-08-12T15:27:03;5;5;
63305;PMS5003;50735;52.060;1.248;2023-08-12T15:29:35;3;3;
63305;PMS5003;50735;52.060;1.248;2023-08-12T15:32:07;5;4;
63305;PMS5003;50735;52.060;1.248;2023-08-12T15:34:39;4;3;
63305;PMS5003;50735;52.060;1.248;2023-08-12T15:37:10;2;2;
63305;PMS5003;50735;52.060;1.248;2023-08-12T15:39:42;7;3;
63305;PMS5003;50735;52.060;1.248;2023-08-12T15:42:14;6;6;
63305;PMS5003;50735;52.060;1.248;2023-08-12T15:44:46;3;3;
63305;PMS5003;50735;52.060;1.248;2023-08-12T15:47:17;7;4;
63305;PMS5003;50735;52.060;1.248;2023-08-12T15:49:49;28;28;
63305;PMS5003;50735;52.060;1.248;2023-08-12T15:52:21;6;5;
63305;PMS5003;50735;52.060;1.248;2023-08-12T15:54:53;6;4;
63305;PMS5003;50735;52.060;1.248;2023-08-12T15:57:25;5;4;
63305;PMS5003;50735;52.060;1.248;2023-08-12T15:59:57;9;5;
63305;PMS5003;50735;52.060;1.248;2023-08-12T16:02:30;6;3;
63305;PMS5003;50735;52.060;1.248;2023-08-12T16:05:01;2;2;
63305;PMS5003;50735;52.060;1.248;2023-08-12T16:07:34;3;3;
63305;PMS5003;50735;52.060;1.248;2023-08-12T16:10:06;7;2;
63305;PMS5003;50735;52.060;1.248;2023-08-12T16:12:38;7;3;
63305;PMS5003;50735;52.060;1.248;2023-08-12T16:15:10;3;2;
63305;PMS5003;50735;52.060;1.248;2023-08-12T16:17:42;4;3;
63305;PMS5003;50735;52.060;1.248;2023-08-12T16:20:13;4;3;
63305;PMS5003;50735;52.060;1.248;2023-08-12T16:22:45;6;3;
63305;PMS5003;50735;52.060;1.248;2023-08-12T16:25:17;7;4;
63305;PMS5003;50735;52.060;1.248;2023-08-12T16:27:49;4;3;
63305;PMS5003;50735;52.060;1.248;2023-08-12T16:30:21;2;2;
63305;PMS5003;50735;52.060;1.248;2023-08-12T16:32:52;2;2;
63305;PMS5003;50735;52.060;1.248;2023-08-12T16:35:24;2;2;
63305;PMS5003;50735;52.060;1.248;2023-08-12T16:37:56;5;2;
63305;PMS5003;50735;52.060;1.248;2023-08-12T16:40:28;3;3;
63305;PMS5003;50735;52.060;1.248;2023-08-12T16:43:00;8;3;
63305;PMS5003;50735;52.060;1.248;2023-08-12T16:45:32;3;2;
63305;PMS5003;50735;52.060;1.248;2023-08-12T16:48:04;4;3;
63305;PMS5003;50735;52.060;1.248;2023-08-12T16:50:36;4;3;
63305;PMS5003;50735;52.060;1.248;2023-08-12T16:53:08;5;4;
63305;PMS5003;50735;52.060;1.248;2023-08-12T16:55:39;3;2;
63305;PMS5003;50735;52.060;1.248;2023-08-12T16:58:11;6;6;
63305;PMS5003;50735;52.060;1.248;2023-08-12T17:00:43;5;4;
63305;PMS5003;50735;52.060;1.248;2023-08-12T17:03:14;6;4;
63305;PMS5003;50735;52.060;1.248;2023-08-12T17:05:46;7;6;
63305;PMS5003;50735;52.060;1.248;2023-08-12T17:08:18;5;4;
63305;PMS5003;50735;52.060;1.248;2023-08-12T17:10:50;3;3;
63305;PMS5003;50735;52.060;1.248;2023-08-12T17:13:21;4;4;
63305;PMS5003;50735;52.060;1.248;2023-08-12T17:15:54;4;3;
63305;PMS5003;50735;52.060;1.248;2023-08-12T17:18:25;6;4;
63305;PMS5003;50735;52.060;1.248;2023-08-12T17:20:57;3;3;
63305;PMS5003;50735;52.060;1.248;2023-08-12T17:23:29;2;2;
63305;PMS5003;50735;52.060;1.248;2023-08-12T17:26:00;3;3;